Time;durP1;ratioP1;P1;durP2;ratioP2;P2;SDS_P1;SDS_P2;PMS_P1;PMS_P2;Temp;Humidity;BMP_temperature;BMP_pressure;BME280_temperature;BME280_humidity;BME280_pressure;Samples;Min_cycle;Max_cycle;Signal;HPM_P1;HPM_P2
2022/05/25 00:00:55;;;;;;;;;3.80;3.80;29.70;99.90;;;;;;5016254;28;8861;-65
2022/05/25 00:03:25;;;;;;;;;3.20;3.20;29.70;99.90;;;;;;5017789;28;8864;-65
2022/05/25 00:05:58;;;;;;;;;4.20;4.20;29.70;99.90;;;;;;5013846;28;8900;-65
2022/05/25 00:08:28;;;;;;;;;5.00;4.60;29.70;99.90;;;;;;5012042;28;9008;-65
2022/05/25 00:10:58;;;;;;;;;5.00;5.00;29.80;99.90;;;;;;5014642;28;8841;-63
2022/05/25 00:13:29;;;;;;;;;4.40;4.40;29.80;99.90;;;;;;5009115;28;8901;-65
2022/05/25 00:16:00;;;;;;;;;4.60;4.60;29.80;99.90;;;;;;5014247;28;8853;-64
2022/05/25 00:18:33;;;;;;;;;5.00;3.20;29.80;99.90;;;;;;5013920;28;9021;-64
2022/05/25 00:21:04;;;;;;;;;4.60;4.00;29.80;99.90;;;;;;5010831;28;8952;-65
2022/05/25 00:23:36;;;;;;;;;2.40;2.40;29.80;99.90;;;;;;5008383;28;9052;-65
2022/05/25 00:26:07;;;;;;;;;3.40;3.00;29.90;99.90;;;;;;5007558;28;8987;-64
2022/05/25 00:28:37;;;;;;;;;4.00;4.00;30.00;99.90;;;;;;5023897;28;8889;-66
2022/05/25 00:31:08;;;;;;;;;5.00;3.60;30.00;99.90;;;;;;5018914;28;8852;-64
2022/05/25 00:33:39;;;;;;;;;5.40;5.40;30.00;99.90;;;;;;4997067;28;8865;-64
2022/05/25 00:36:08;;;;;;;;;2.00;2.00;30.00;99.90;;;;;;5013887;28;8881;-65
2022/05/25 00:38:39;;;;;;;;;4.00;4.00;30.00;99.90;;;;;;5018021;28;8845;-64
2022/05/25 00:41:11;;;;;;;;;4.20;4.20;30.00;99.90;;;;;;5016836;28;8965;-65
2022/05/25 00:43:42;;;;;;;;;7.60;4.60;30.00;99.90;;;;;;5018643;28;8837;-64
2022/05/25 00:46:16;;;;;;;;;3.60;3.60;30.00;99.90;;;;;;5019606;28;8846;-63
2022/05/25 00:49:25;;;;;;;;;3.20;3.20;30.00;99.90;;;;;;5014110;28;8844;-64
2022/05/25 00:52:13;;;;;;;;;3.80;3.80;30.00;99.90;;;;;;5011069;28;8988;-65
2022/05/25 00:54:52;;;;;;;;;4.80;4.80;30.00;99.90;;;;;;5015180;28;8837;-64
2022/05/25 00:57:27;;;;;;;;;4.00;4.00;30.00;99.90;;;;;;5015012;28;8873;-64
2022/05/25 01:00:14;;;;;;;;;4.20;2.60;29.90;99.90;;;;;;5018180;28;8854;-63
2022/05/25 01:02:49;;;;;;;;;5.00;4.00;29.80;99.90;;;;;;5010680;28;8852;-63
2022/05/25 01:05:45;;;;;;;;;4.00;4.00;29.80;99.90;;;;;;5016450;28;8984;-62
2022/05/25 01:08:30;;;;;;;;;5.00;4.00;29.70;99.90;;;;;;5005332;28;8884;-67
2022/05/25 01:11:30;;;;;;;;;6.20;4.00;29.60;99.90;;;;;;5019963;28;8847;-67
2022/05/25 01:14:20;;;;;;;;;3.40;3.00;29.60;99.90;;;;;;4975171;28;8857;-62
2022/05/25 01:17:03;;;;;;;;;3.60;3.20;29.50;99.90;;;;;;5018226;28;8857;-65
2022/05/25 01:19:56;;;;;;;;;1.40;1.40;29.50;99.90;;;;;;5020246;28;9095;-69
2022/05/25 01:22:39;;;;;;;;;5.20;5.20;29.40;99.90;;;;;;5014554;28;8984;-63
2022/05/25 01:25:40;;;;;;;;;5.00;4.00;29.40;99.90;;;;;;5014111;28;8834;-64
2022/05/25 01:28:29;;;;;;;;;5.00;5.00;29.40;99.90;;;;;;5021927;28;8892;-64
2022/05/25 01:31:03;;;;;;;;;5.25;3.75;29.30;99.90;;;;;;5018332;28;8818;-64
2022/05/25 01:33:56;;;;;;;;;5.75;3.00;29.30;99.90;;;;;;5000363;28;8858;-63
2022/05/25 01:36:39;;;;;;;;;4.75;4.75;29.30;99.90;;;;;;5019659;28;8822;-63
2022/05/25 01:39:17;;;;;;;;;3.50;3.50;29.30;99.90;;;;;;5015359;28;8880;-68
2022/05/25 01:41:58;;;;;;;;;4.00;4.00;29.20;99.90;;;;;;5014782;28;8995;-72
2022/05/25 01:44:38;;;;;;;;;4.00;4.00;29.20;99.90;;;;;;5020106;28;8825;-66
2022/05/25 01:47:10;;;;;;;;;5.25;4.00;29.20;99.90;;;;;;5014551;28;8976;-68
2022/05/25 01:49:54;;;;;;;;;3.00;3.00;29.30;99.90;;;;;;5012872;28;8836;-71
2022/05/25 01:52:29;;;;;;;;;4.75;4.75;29.20;99.90;;;;;;4991013;28;9299;-71
2022/05/25 01:55:17;;;;;;;;;3.75;3.75;29.20;99.90;;;;;;4998232;28;8828;-67
2022/05/25 01:57:59;;;;;;;;;4.00;4.00;29.30;99.90;;;;;;5008755;28;8877;-66
2022/05/25 02:00:45;;;;;;;;;3.75;3.75;29.30;99.90;;;;;;5014614;28;9006;-69
2022/05/25 02:06:31;;;;;;;;;4.25;4.25;29.20;99.90;;;;;;5004393;28;8849;-70
2022/05/25 02:09:20;;;;;;;;;6.20;6.20;29.30;99.90;;;;;;5033031;28;8895;-66
2022/05/25 02:12:35;;;;;;;;;4.00;4.00;29.20;99.90;;;;;;4997925;28;8873;-67
2022/05/25 02:15:38;;;;;;;;;4.40;4.40;29.10;99.90;;;;;;5013801;28;8879;-67
2022/05/25 02:18:15;;;;;;;;;5.40;5.40;29.10;99.90;;;;;;5016104;28;8868;-65
2022/05/25 02:20:50;;;;;;;;;5.00;5.00;29.10;99.90;;;;;;5004845;28;8816;-67
2022/05/25 02:23:38;;;;;;;;;5.75;4.25;29.10;99.90;;;;;;5012678;28;8825;-66
2022/05/25 02:26:35;;;;;;;;;4.80;4.80;29.10;99.90;;;;;;5024246;28;8822;-70
2022/05/25 02:29:35;;;;;;;;;4.00;4.00;29.00;99.90;;;;;;5017060;28;9009;-67
2022/05/25 02:32:14;;;;;;;;;5.00;5.00;29.00;99.90;;;;;;5012274;28;8838;-68
2022/05/25 02:34:50;;;;;;;;;5.60;4.20;28.90;99.90;;;;;;5026691;28;8865;-68
2022/05/25 02:37:31;;;;;;;;;5.50;5.50;28.90;99.90;;;;;;5012718;28;8849;-68
2022/05/25 02:40:06;;;;;;;;;6.75;6.25;28.90;99.90;;;;;;5018646;28;8821;-69
2022/05/25 02:42:40;;;;;;;;;5.00;5.00;28.90;99.90;;;;;;5002942;28;8975;-69
2022/05/25 02:45:12;;;;;;;;;4.00;4.00;28.90;99.90;;;;;;5018974;28;8916;-66
2022/05/25 02:47:45;;;;;;;;;4.00;4.00;29.00;99.90;;;;;;5013654;28;8854;-66
2022/05/25 02:50:18;;;;;;;;;3.20;3.20;28.90;99.90;;;;;;5015606;28;8806;-66
2022/05/25 02:52:49;;;;;;;;;4.40;4.40;29.00;99.90;;;;;;5010378;28;11016;-65
2022/05/25 02:55:19;;;;;;;;;5.40;4.80;28.80;99.90;;;;;;5021784;28;8813;-66
2022/05/25 02:57:48;;;;;;;;;5.40;4.20;28.80;99.90;;;;;;5012301;28;8870;-64
2022/05/25 03:00:19;;;;;;;;;6.60;5.00;28.70;99.90;;;;;;5011222;28;8875;-66
2022/05/25 03:02:50;;;;;;;;;3.60;3.60;28.70;99.90;;;;;;4998160;28;9713;-64
2022/05/25 03:05:20;;;;;;;;;7.00;7.00;28.70;99.90;;;;;;5014193;28;8968;-65
2022/05/25 03:07:53;;;;;;;;;3.00;3.00;28.60;99.90;;;;;;4996988;28;8841;-67
2022/05/25 03:10:23;;;;;;;;;5.20;5.20;28.40;99.90;;;;;;5020601;28;8857;-65
2022/05/25 03:12:54;;;;;;;;;4.00;4.00;28.40;99.90;;;;;;5012168;28;9627;-67
2022/05/25 03:15:23;;;;;;;;;5.25;4.50;28.20;99.90;;;;;;5009672;28;8884;-63
2022/05/25 03:17:53;;;;;;;;;4.00;4.00;28.00;99.90;;;;;;5018339;28;8861;-64
2022/05/25 03:20:24;;;;;;;;;5.00;5.00;28.00;99.90;;;;;;5016801;28;8908;-63
2022/05/25 03:22:55;;;;;;;;;6.25;5.00;27.90;99.90;;;;;;5016357;28;8873;-64
2022/05/25 03:25:26;;;;;;;;;6.25;4.75;27.80;99.90;;;;;;5013907;28;8907;-64
2022/05/25 03:27:56;;;;;;;;;4.00;4.00;27.80;99.90;;;;;;5012492;28;8927;-63
2022/05/25 03:30:26;;;;;;;;;4.25;4.25;27.70;99.90;;;;;;5008222;28;8873;-63
2022/05/25 03:33:01;;;;;;;;;4.75;3.75;27.60;99.90;;;;;;5015936;28;8895;-64
2022/05/25 03:35:32;;;;;;;;;7.00;5.75;27.60;99.90;;;;;;5009097;28;8833;-64
2022/05/25 03:38:04;;;;;;;;;3.75;3.75;27.60;99.90;;;;;;5025175;28;8856;-66
2022/05/25 03:40:34;;;;;;;;;4.25;4.25;27.50;99.90;;;;;;5017055;28;9595;-63
2022/05/25 03:43:18;;;;;;;;;4.00;3.75;27.50;99.90;;;;;;5013556;28;9044;-65
2022/05/25 03:45:47;;;;;;;;;4.50;4.50;27.40;99.90;;;;;;5015200;28;8988;-64
2022/05/25 03:48:19;;;;;;;;;3.75;3.75;27.40;99.90;;;;;;5019095;28;8834;-62
2022/05/25 03:50:50;;;;;;;;;4.25;4.25;27.40;99.90;;;;;;5011893;28;8826;-65
2022/05/25 03:53:22;;;;;;;;;6.25;6.25;27.30;99.90;;;;;;5011527;28;8861;-64
2022/05/25 03:55:52;;;;;;;;;6.00;5.75;27.30;99.90;;;;;;5016248;28;8837;-66
2022/05/25 03:58:21;;;;;;;;;5.50;5.50;27.30;99.90;;;;;;5014696;28;8852;-64
2022/05/25 04:00:54;;;;;;;;;6.50;6.50;27.20;99.90;;;;;;5021368;28;9047;-65
2022/05/25 04:03:26;;;;;;;;;5.50;5.00;27.10;99.90;;;;;;5012827;28;8846;-66
2022/05/25 04:05:57;;;;;;;;;5.00;5.00;27.10;99.90;;;;;;5017876;28;8865;-66
2022/05/25 04:08:31;;;;;;;;;5.00;5.00;27.00;99.90;;;;;;4994209;28;8872;-67
2022/05/25 04:11:02;;;;;;;;;4.00;4.00;26.90;99.90;;;;;;5015164;28;8931;-64
2022/05/25 04:13:33;;;;;;;;;4.00;4.00;26.90;99.90;;;;;;4999348;28;9220;-65
2022/05/25 04:16:02;;;;;;;;;5.25;3.25;26.90;99.90;;;;;;5017177;28;8872;-65
2022/05/25 04:18:34;;;;;;;;;4.25;4.25;26.80;99.90;;;;;;5016542;28;8984;-64
2022/05/25 04:21:04;;;;;;;;;5.75;4.75;26.80;99.90;;;;;;5018250;28;8872;-65
2022/05/25 04:23:38;;;;;;;;;6.75;5.75;26.80;99.90;;;;;;5014558;28;8899;-62
2022/05/25 04:26:12;;;;;;;;;4.00;4.00;26.80;99.90;;;;;;5011057;28;8911;-65
2022/05/25 04:28:43;;;;;;;;;8.50;5.50;26.70;99.90;;;;;;5016205;28;8861;-63
2022/05/25 04:31:14;;;;;;;;;5.00;5.00;26.60;99.90;;;;;;5016460;28;8833;-62
2022/05/25 04:33:46;;;;;;;;;5.50;4.50;26.50;99.90;;;;;;5017554;28;8870;-63
2022/05/25 04:36:23;;;;;;;;;5.75;5.75;26.40;99.90;;;;;;5016286;28;8805;-63
2022/05/25 04:38:53;;;;;;;;;5.25;5.25;26.30;99.90;;;;;;5009047;28;8837;-65
2022/05/25 04:41:23;;;;;;;;;3.00;3.00;26.30;99.90;;;;;;5018306;28;8843;-65
2022/05/25 04:43:53;;;;;;;;;4.25;4.25;26.30;99.90;;;;;;5021257;28;8821;-65
2022/05/25 04:46:24;;;;;;;;;4.75;4.00;26.30;99.90;;;;;;5013583;28;8844;-65
2022/05/25 04:48:53;;;;;;;;;6.50;6.50;26.30;99.90;;;;;;5000256;28;8999;-64
2022/05/25 04:51:24;;;;;;;;;7.00;4.25;26.30;99.90;;;;;;5012385;28;8868;-63
2022/05/25 04:53:54;;;;;;;;;5.25;5.25;26.10;99.90;;;;;;5018694;28;8959;-65
2022/05/25 04:59:13;;;;;;;;;4.75;4.75;26.10;99.90;;;;;;5019045;28;8971;-67
2022/05/25 05:01:43;;;;;;;;;6.00;6.00;26.00;99.90;;;;;;5021618;28;9010;-65
2022/05/25 05:04:14;;;;;;;;;5.00;5.00;25.90;99.90;;;;;;5016749;28;8864;-66
2022/05/25 05:06:44;;;;;;;;;4.25;4.25;25.90;99.90;;;;;;5014871;28;9639;-61
2022/05/25 05:09:16;;;;;;;;;5.75;5.75;25.90;99.90;;;;;;5020227;28;8821;-64
2022/05/25 05:11:48;;;;;;;;;4.00;4.00;25.90;99.90;;;;;;5008377;28;8849;-65
2022/05/25 05:14:18;;;;;;;;;5.00;5.00;25.80;99.90;;;;;;5018297;28;9543;-57
2022/05/25 05:16:51;;;;;;;;;3.75;3.75;25.70;99.90;;;;;;5017270;28;8842;-64
2022/05/25 05:19:29;;;;;;;;;3.75;2.75;25.70;99.90;;;;;;5022012;28;8891;-64
2022/05/25 05:22:03;;;;;;;;;5.00;5.00;25.60;99.90;;;;;;5014250;28;9566;-64
2022/05/25 05:24:33;;;;;;;;;8.25;5.75;25.60;99.90;;;;;;5017607;28;8892;-63
2022/05/25 05:27:06;;;;;;;;;7.00;7.00;25.50;99.90;;;;;;5013447;28;8865;-63
2022/05/25 05:29:36;;;;;;;;;6.75;4.75;25.50;99.90;;;;;;5023037;28;9578;-64
2022/05/25 05:32:10;;;;;;;;;4.25;3.50;25.50;99.90;;;;;;5018445;28;8837;-64
2022/05/25 05:34:40;;;;;;;;;5.75;5.75;25.50;99.90;;;;;;5015372;28;8968;-64
2022/05/25 05:37:20;;;;;;;;;6.25;4.75;25.40;99.90;;;;;;5008851;28;8866;-63
2022/05/25 05:39:54;;;;;;;;;4.00;4.00;25.30;99.90;;;;;;5017726;28;8936;-63
2022/05/25 05:42:26;;;;;;;;;8.25;5.50;25.30;99.90;;;;;;5024350;28;8880;-63
2022/05/25 05:45:09;;;;;;;;;6.00;6.00;25.20;99.90;;;;;;5016955;28;8830;-63
2022/05/25 05:47:51;;;;;;;;;4.75;4.75;25.20;99.90;;;;;;5017256;28;9714;-64
2022/05/25 05:50:25;;;;;;;;;5.00;5.00;25.10;99.90;;;;;;5016459;28;8883;-64
2022/05/25 05:52:55;;;;;;;;;4.25;4.25;25.10;99.90;;;;;;5013135;28;8997;-64
2022/05/25 05:55:28;;;;;;;;;6.00;6.00;25.10;99.90;;;;;;5007042;28;8880;-64
2022/05/25 05:57:59;;;;;;;;;3.75;3.75;25.00;99.90;;;;;;5022179;28;8810;-63
2022/05/25 06:00:29;;;;;;;;;7.00;7.00;24.90;99.90;;;;;;5032190;28;8856;-64
2022/05/25 06:03:01;;;;;;;;;7.00;7.00;24.90;99.90;;;;;;5014421;28;8821;-63
2022/05/25 06:05:32;;;;;;;;;4.00;4.00;24.80;99.90;;;;;;4996915;28;8826;-63
2022/05/25 06:08:12;;;;;;;;;5.75;5.75;24.80;99.90;;;;;;5017370;28;8841;-63
2022/05/25 06:10:43;;;;;;;;;6.50;6.50;24.70;99.90;;;;;;5012666;28;8838;-63
2022/05/25 06:13:16;;;;;;;;;6.75;5.25;24.70;99.90;;;;;;5027488;28;8864;-63
2022/05/25 06:21:31;;;;;;;;;5.50;3.00;24.60;99.90;;;;;;5013987;28;8853;-63
2022/05/25 06:24:04;;;;;;;;;5.00;5.00;24.60;99.90;;;;;;5011636;28;8872;-63
2022/05/25 06:26:36;;;;;;;;;7.50;5.25;24.60;99.90;;;;;;4995167;28;8909;-63
2022/05/25 06:29:07;;;;;;;;;5.75;5.75;24.50;99.90;;;;;;5014352;28;8822;-63
2022/05/25 06:31:38;;;;;;;;;5.50;5.50;24.40;99.90;;;;;;5013903;28;8979;-64
2022/05/25 06:34:09;;;;;;;;;7.25;5.50;24.40;99.90;;;;;;5017246;28;8857;-64
2022/05/25 06:36:47;;;;;;;;;8.00;6.75;24.30;99.90;;;;;;5012902;28;8900;-62
2022/05/25 06:39:16;;;;;;;;;5.25;4.50;24.30;99.90;;;;;;5009230;28;8853;-64
2022/05/25 06:41:46;;;;;;;;;4.25;4.25;24.30;99.90;;;;;;5014215;28;9003;-64
2022/05/25 06:44:17;;;;;;;;;5.75;5.75;24.20;99.90;;;;;;5015635;28;8833;-65
2022/05/25 06:46:51;;;;;;;;;4.00;4.00;24.20;99.90;;;;;;5016782;28;8857;-66
2022/05/25 06:49:21;;;;;;;;;8.25;5.50;24.10;99.90;;;;;;5000347;28;8865;-64
2022/05/25 06:51:54;;;;;;;;;4.25;4.25;24.00;99.90;;;;;;5016250;28;8865;-64
2022/05/25 06:54:26;;;;;;;;;4.00;4.00;24.00;99.90;;;;;;5011150;28;9038;-64
2022/05/25 06:56:59;;;;;;;;;6.25;6.25;24.00;99.90;;;;;;5020354;28;8855;-62
2022/05/25 06:59:30;;;;;;;;;5.00;5.00;24.00;99.90;;;;;;5016636;28;8845;-63
2022/05/25 07:02:01;;;;;;;;;6.50;6.50;24.00;99.90;;;;;;5008393;28;8883;-63
2022/05/25 07:04:32;;;;;;;;;6.00;6.00;23.90;99.90;;;;;;5012870;28;8846;-63
2022/05/25 07:07:05;;;;;;;;;3.00;2.00;23.80;99.90;;;;;;5014415;28;8907;-63
2022/05/25 07:09:39;;;;;;;;;5.00;5.00;23.80;99.90;;;;;;5015818;28;8965;-63
2022/05/25 07:12:12;;;;;;;;;6.00;6.00;23.80;99.90;;;;;;5012716;28;9791;-63
2022/05/25 07:14:42;;;;;;;;;4.33;4.33;23.70;99.90;;;;;;5017164;28;8888;-62
2022/05/25 07:17:15;;;;;;;;;7.75;6.00;23.70;99.90;;;;;;5017726;28;8942;-63
2022/05/25 07:19:47;;;;;;;;;7.00;5.33;23.70;99.90;;;;;;4998446;28;8940;-65
2022/05/25 07:22:18;;;;;;;;;7.00;7.00;23.70;99.90;;;;;;5005384;28;9167;-64
2022/05/25 07:24:48;;;;;;;;;4.25;4.25;23.60;99.90;;;;;;5012396;28;8852;-65
2022/05/25 07:27:19;;;;;;;;;7.50;5.75;23.60;99.90;;;;;;4996568;28;8901;-66
2022/05/25 07:29:49;;;;;;;;;7.33;7.33;23.50;99.90;;;;;;5018658;28;8838;-63
2022/05/25 07:32:22;;;;;;;;;6.00;6.00;23.40;99.90;;;;;;5010290;28;8972;-62
2022/05/25 07:34:58;;;;;;;;;8.00;6.00;23.40;99.90;;;;;;5012666;28;8940;-64
2022/05/25 07:37:37;;;;;;;;;8.00;7.00;23.40;99.90;;;;;;5011626;28;8987;-65
2022/05/25 07:40:23;;;;;;;;;7.00;7.00;23.40;99.90;;;;;;5012858;28;8849;-63
2022/05/25 07:43:00;;;;;;;;;5.25;5.25;23.40;99.90;;;;;;5012447;28;8979;-63
2022/05/25 07:45:32;;;;;;;;;6.00;4.33;23.30;99.90;;;;;;5017420;28;8860;-64
2022/05/25 07:48:04;;;;;;;;;7.33;6.00;23.20;99.90;;;;;;5014011;28;8988;-63
2022/05/25 07:50:42;;;;;;;;;8.33;6.67;23.30;99.90;;;;;;5018254;28;8967;-66
2022/05/25 07:56:10;;;;;;;;;6.00;6.00;23.20;99.90;;;;;;5013880;28;8834;-64
2022/05/25 07:58:40;;;;;;;;;5.00;5.00;23.10;99.90;;;;;;5015404;28;8981;-65
2022/05/25 08:01:14;;;;;;;;;6.00;6.00;23.10;99.90;;;;;;5017716;28;9006;-66
2022/05/25 08:06:40;;;;;;;;;7.00;7.00;23.00;99.90;;;;;;5011716;28;8925;-63
2022/05/25 08:09:10;;;;;;;;;5.67;5.67;23.00;99.90;;;;;;5015617;28;8920;-64
2022/05/25 08:11:40;;;;;;;;;6.00;6.00;22.90;99.90;;;;;;5012169;28;9049;-65
2022/05/25 08:14:12;;;;;;;;;9.67;9.67;22.90;99.90;;;;;;5011766;28;8941;-65
2022/05/25 08:16:45;;;;;;;;;8.00;8.00;22.90;99.90;;;;;;5027745;28;8973;-65
2022/05/25 08:19:15;;;;;;;;;5.33;5.33;22.80;99.90;;;;;;5014750;28;8845;-65
2022/05/25 08:21:47;;;;;;;;;7.00;7.00;22.80;99.90;;;;;;5017343;28;9200;-65
2022/05/25 08:24:19;;;;;;;;;7.00;7.00;22.80;99.90;;;;;;5003820;28;9047;-65
2022/05/25 08:26:49;;;;;;;;;8.67;6.00;22.80;99.90;;;;;;5011727;28;8968;-65
2022/05/25 08:29:24;;;;;;;;;5.67;5.67;22.80;99.90;;;;;;5016834;28;9218;-64
2022/05/25 08:32:01;;;;;;;;;5.00;5.00;22.70;99.90;;;;;;5013721;28;9051;-64
2022/05/25 08:34:35;;;;;;;;;7.33;6.00;22.70;99.90;;;;;;5013925;28;9065;-65
2022/05/25 08:37:12;;;;;;;;;9.00;7.33;22.70;99.90;;;;;;5011926;28;9087;-65
2022/05/25 08:39:43;;;;;;;;;8.00;6.00;22.70;99.90;;;;;;5017147;28;8994;-65
2022/05/25 08:42:18;;;;;;;;;7.33;6.00;22.60;99.90;;;;;;5011847;28;9037;-65
2022/05/25 08:44:51;;;;;;;;;5.00;4.00;22.60;99.90;;;;;;5007355;28;9772;-64
2022/05/25 08:47:24;;;;;;;;;5.50;5.00;22.60;99.90;;;;;;5017002;28;9132;-65
2022/05/25 08:49:55;;;;;;;;;7.00;7.00;22.50;99.90;;;;;;5017491;28;8836;-65
2022/05/25 08:52:34;;;;;;;;;5.00;5.00;22.50;99.90;;;;;;5021719;28;9101;-65
2022/05/25 08:55:08;;;;;;;;;9.00;7.00;22.50;99.90;;;;;;5017175;28;9040;-63
2022/05/25 08:57:52;;;;;;;;;7.67;6.00;22.40;99.90;;;;;;5018262;28;9209;-65
2022/05/25 09:00:23;;;;;;;;;5.00;5.00;22.40;99.90;;;;;;5029077;28;9101;-66
2022/05/25 09:03:40;;;;;;;;;8.00;8.00;22.40;99.90;;;;;;5019333;28;9210;-65
2022/05/25 09:06:42;;;;;;;;;7.00;7.00;22.30;99.90;;;;;;5024630;28;9327;-63
2022/05/25 09:09:23;;;;;;;;;7.00;7.00;22.30;99.90;;;;;;5021351;28;9244;-63
2022/05/25 09:12:04;;;;;;;;;8.00;7.00;22.20;99.90;;;;;;5017658;28;9003;-65
2022/05/25 09:14:48;;;;;;;;;9.67;8.33;22.20;99.90;;;;;;5018774;28;9163;-65
2022/05/25 09:17:46;;;;;;;;;7.33;7.33;22.10;99.90;;;;;;5011018;28;9314;-65
2022/05/25 09:20:55;;;;;;;;;7.67;6.00;22.10;99.90;;;;;;5014323;28;9190;-63
2022/05/25 09:23:28;;;;;;;;;8.00;8.00;22.10;99.90;;;;;;5015005;28;9167;-63
2022/05/25 09:26:00;;;;;;;;;6.75;6.75;22.10;99.90;;;;;;5019163;28;9195;-65
2022/05/25 09:28:42;;;;;;;;;12.33;10.67;22.00;99.90;;;;;;5023259;28;8841;-66
2022/05/25 09:31:18;;;;;;;;;7.00;6.33;22.00;99.90;;;;;;5014968;28;9364;-64
2022/05/25 09:34:12;;;;;;;;;7.00;7.00;22.00;99.90;;;;;;5017325;28;9207;-62
2022/05/25 09:36:54;;;;;;;;;8.33;8.33;21.90;99.90;;;;;;5016636;28;9088;-63
2022/05/25 09:39:26;;;;;;;;;7.00;7.00;22.00;99.90;;;;;;5015983;28;9319;-63
2022/05/25 09:42:06;;;;;;;;;7.67;5.00;21.90;99.90;;;;;;5017912;28;9181;-65
2022/05/25 09:44:35;;;;;;;;;7.67;7.67;21.90;99.90;;;;;;5015229;28;10472;-64
2022/05/25 09:47:08;;;;;;;;;6.00;6.00;21.90;99.90;;;;;;5015132;28;9236;-64
2022/05/25 09:49:51;;;;;;;;;8.67;8.67;21.90;99.90;;;;;;5015507;28;9447;-64
2022/05/25 09:52:23;;;;;;;;;7.33;7.33;21.90;99.90;;;;;;5012759;28;9390;-64
2022/05/25 09:55:20;;;;;;;;;7.00;7.00;21.80;99.90;;;;;;5016692;28;9360;-66
2022/05/25 09:58:34;;;;;;;;;7.33;7.33;21.80;99.90;;;;;;5015322;28;9389;-65
2022/05/25 10:01:16;;;;;;;;;10.00;10.00;21.80;99.90;;;;;;5013212;28;9364;-65
2022/05/25 10:03:47;;;;;;;;;21.25;14.25;21.80;99.90;;;;;;5015507;28;9292;-65
2022/05/25 10:06:34;;;;;;;;;15.75;13.75;21.70;99.90;;;;;;5015103;28;9695;-66
2022/05/25 10:09:29;;;;;;;;;12.00;9.33;21.70;99.90;;;;;;5017556;28;9625;-65
2022/05/25 10:12:24;;;;;;;;;8.00;6.00;21.60;99.90;;;;;;5011789;28;9552;-63
2022/05/25 10:15:01;;;;;;;;;11.33;6.00;21.60;99.90;;;;;;4990072;28;9945;-65
2022/05/25 10:17:35;;;;;;;;;5.33;5.33;21.60;99.90;;;;;;5006237;28;9372;-65
2022/05/25 10:20:20;;;;;;;;;5.00;5.00;21.60;99.90;;;;;;5027535;28;9383;-64
2022/05/25 10:23:22;;;;;;;;;5.67;5.67;21.60;99.90;;;;;;5011117;28;9419;-64
2022/05/25 10:26:10;;;;;;;;;9.67;9.67;21.50;99.90;;;;;;5004010;28;9382;-65
2022/05/25 10:29:01;;;;;;;;;9.00;9.00;21.50;99.90;;;;;;5012823;28;9418;-64
2022/05/25 10:37:33;;;;;;;;;6.33;6.33;21.40;99.90;;;;;;5015174;28;10120;-64
2022/05/25 10:40:06;;;;;;;;;8.67;8.00;21.40;99.90;;;;;;5017785;28;9364;-64
2022/05/25 10:42:44;;;;;;;;;7.00;7.00;21.30;99.90;;;;;;5008459;28;9472;-64
2022/05/25 10:45:24;;;;;;;;;9.00;8.25;21.30;99.90;;;;;;5012231;28;9451;-65
2022/05/25 10:48:24;;;;;;;;;7.67;7.67;21.30;99.90;;;;;;5018589;28;9663;-65
2022/05/25 10:51:01;;;;;;;;;9.67;9.00;21.30;99.90;;;;;;5014152;28;9444;-64
2022/05/25 10:54:44;;;;;;;;;5.67;5.33;21.30;99.90;;;;;;5016813;28;9596;-64
2022/05/25 10:57:13;;;;;;;;;5.00;5.00;21.30;99.90;;;;;;5018733;28;9550;-65
2022/05/25 10:59:50;;;;;;;;;7.00;7.00;21.20;99.90;;;;;;5007890;28;9482;-64
2022/05/25 11:02:37;;;;;;;;;7.25;4.25;21.20;99.90;;;;;;5017907;28;9481;-64
2022/05/25 11:05:09;;;;;;;;;7.75;7.75;21.20;99.90;;;;;;5016823;28;9527;-64
2022/05/25 11:07:42;;;;;;;;;7.75;7.75;21.10;99.90;;;;;;5014066;28;9878;-64
2022/05/25 11:10:21;;;;;;;;;6.00;6.00;21.10;99.90;;;;;;5010687;28;9444;-63
2022/05/25 11:13:19;;;;;;;;;10.00;6.00;21.10;99.90;;;;;;5018140;28;9582;-62
2022/05/25 11:15:59;;;;;;;;;9.00;7.33;21.10;99.90;;;;;;5016588;28;9529;-63
2022/05/25 11:18:35;;;;;;;;;7.00;7.00;21.00;99.90;;;;;;5013809;28;9583;-63
2022/05/25 11:21:25;;;;;;;;;7.00;7.00;21.00;99.90;;;;;;5017176;28;9729;-64
2022/05/25 11:24:13;;;;;;;;;6.00;6.00;20.90;99.90;;;;;;5017676;28;9552;-64
2022/05/25 11:27:09;;;;;;;;;8.00;7.67;20.90;99.90;;;;;;5016730;28;9510;-66
2022/05/25 11:29:54;;;;;;;;;6.50;6.25;20.90;99.90;;;;;;4995802;28;9480;-64
2022/05/25 11:32:54;;;;;;;;;7.25;6.50;20.90;99.90;;;;;;5012696;28;9849;-63
2022/05/25 11:35:31;;;;;;;;;10.50;7.25;20.90;99.90;;;;;;5012352;28;9734;-63
2022/05/25 11:38:21;;;;;;;;;5.00;5.00;20.80;99.90;;;;;;5029049;28;10987;-63
2022/05/25 11:41:41;;;;;;;;;7.25;7.25;20.80;99.90;;;;;;5012660;28;9928;-63
2022/05/25 11:44:12;;;;;;;;;8.25;8.25;20.80;99.90;;;;;;4992261;28;9812;-63
2022/05/25 11:46:49;;;;;;;;;5.25;5.25;20.80;99.90;;;;;;5018677;28;9773;-64
2022/05/25 11:49:55;;;;;;;;;7.75;6.50;20.70;99.90;;;;;;5013678;28;9959;-64
2022/05/25 11:52:38;;;;;;;;;5.67;5.67;20.70;99.90;;;;;;5007605;28;9624;-64
2022/05/25 11:55:40;;;;;;;;;6.00;5.25;20.70;99.90;;;;;;5005612;28;9523;-64
2022/05/25 11:58:21;;;;;;;;;5.00;5.00;20.60;99.90;;;;;;5008203;28;10412;-64
2022/05/25 12:01:29;;;;;;;;;8.50;8.50;20.60;99.90;;;;;;5012958;28;9592;-64
2022/05/25 12:03:59;;;;;;;;;11.25;8.00;20.60;99.90;;;;;;5016700;28;9768;-64
2022/05/25 12:06:48;;;;;;;;;7.00;7.00;20.50;99.90;;;;;;5017923;28;9531;-65
2022/05/25 12:09:36;;;;;;;;;5.75;5.25;20.50;99.90;;;;;;4985533;28;9751;-64
2022/05/25 12:12:37;;;;;;;;;6.75;6.75;20.50;99.90;;;;;;5012461;28;9633;-64
2022/05/25 12:15:36;;;;;;;;;9.75;9.75;20.50;99.90;;;;;;5008371;28;9595;-64
2022/05/25 12:18:26;;;;;;;;;6.75;6.75;20.50;99.90;;;;;;5018344;28;9895;-63
2022/05/25 12:21:13;;;;;;;;;7.00;7.00;20.40;99.90;;;;;;5017110;28;9718;-64
2022/05/25 12:23:51;;;;;;;;;6.00;6.00;20.40;99.90;;;;;;5018148;28;9575;-65
2022/05/25 12:26:32;;;;;;;;;6.75;6.50;20.40;99.90;;;;;;4994977;28;9804;-64
2022/05/25 12:29:33;;;;;;;;;7.75;7.00;20.40;99.90;;;;;;5013733;28;10476;-64
2022/05/25 12:32:06;;;;;;;;;11.75;10.25;20.30;99.90;;;;;;5012860;28;9879;-65
2022/05/25 12:34:52;;;;;;;;;6.00;5.00;20.30;99.90;;;;;;5012955;28;9945;-65
2022/05/25 12:37:27;;;;;;;;;10.50;8.25;20.30;99.90;;;;;;5020642;28;9637;-64
2022/05/25 12:40:09;;;;;;;;;9.75;8.00;20.30;99.90;;;;;;5016501;28;9780;-64
2022/05/25 12:42:45;;;;;;;;;11.75;9.25;20.30;99.90;;;;;;5012511;28;9685;-64
2022/05/25 12:48:31;;;;;;;;;6.25;6.00;20.20;99.90;;;;;;5019231;28;9905;-63
2022/05/25 12:51:25;;;;;;;;;9.50;8.50;20.10;99.90;;;;;;5018227;28;9791;-63
2022/05/25 12:53:54;;;;;;;;;10.75;7.50;20.10;99.90;;;;;;5019468;28;11454;-63
2022/05/25 12:56:26;;;;;;;;;7.00;7.00;20.10;99.90;;;;;;5020248;28;9728;-63
2022/05/25 12:59:11;;;;;;;;;8.00;8.00;20.10;99.90;;;;;;5018664;28;9776;-63
2022/05/25 13:02:12;;;;;;;;;9.25;7.25;20.00;99.90;;;;;;5015413;28;9510;-64
2022/05/25 13:04:46;;;;;;;;;8.00;7.25;20.00;99.90;;;;;;5021408;28;9749;-64
2022/05/25 13:07:36;;;;;;;;;8.00;8.00;20.00;99.90;;;;;;5018913;28;9877;-63
2022/05/25 13:10:32;;;;;;;;;5.75;5.75;20.00;99.90;;;;;;5020430;28;10127;-65
2022/05/25 13:13:26;;;;;;;;;10.00;9.50;19.90;99.90;;;;;;5001787;28;9774;-65
2022/05/25 13:15:57;;;;;;;;;10.25;10.00;20.00;99.90;;;;;;5015650;28;10019;-63
2022/05/25 13:18:54;;;;;;;;;7.25;7.25;19.90;99.90;;;;;;5018481;28;10732;-63
2022/05/25 13:21:39;;;;;;;;;7.75;7.75;19.90;99.90;;;;;;5010915;28;9785;-63
2022/05/25 13:24:41;;;;;;;;;8.00;8.00;19.90;99.90;;;;;;5018610;28;9954;-63
2022/05/25 13:27:18;;;;;;;;;5.25;5.25;20.00;99.90;;;;;;5017662;28;9894;-63
2022/05/25 13:30:12;;;;;;;;;9.25;9.25;19.90;99.90;;;;;;5013928;28;10641;-64
2022/05/25 13:33:23;;;;;;;;;8.50;6.50;19.90;99.90;;;;;;5016292;28;9965;-64
2022/05/25 13:36:15;;;;;;;;;9.00;9.00;19.80;99.90;;;;;;5018303;28;9777;-65
2022/05/25 13:38:52;;;;;;;;;9.00;7.75;19.80;99.90;;;;;;5015816;28;9772;-63
2022/05/25 13:41:26;;;;;;;;;7.50;7.50;19.90;99.90;;;;;;5018098;28;9748;-65
2022/05/25 13:43:59;;;;;;;;;7.50;7.50;19.90;99.90;;;;;;5013651;28;9763;-64
2022/05/25 13:46:45;;;;;;;;;9.25;7.50;19.90;99.90;;;;;;5017183;28;9763;-64
2022/05/25 13:49:35;;;;;;;;;9.00;9.00;19.80;99.90;;;;;;5016267;28;9706;-63
2022/05/25 13:52:33;;;;;;;;;8.25;7.00;19.80;99.90;;;;;;5012122;28;10117;-66
2022/05/25 13:55:25;;;;;;;;;6.50;6.50;19.80;99.90;;;;;;5012967;28;9933;-63
2022/05/25 13:58:02;;;;;;;;;9.50;7.75;19.80;99.90;;;;;;5011054;28;10460;-64
2022/05/25 14:00:41;;;;;;;;;7.00;7.00;19.90;99.90;;;;;;5010034;28;9948;-64
2022/05/25 14:03:18;;;;;;;;;6.25;4.50;19.90;99.90;;;;;;5012321;28;9788;-62
2022/05/25 14:05:53;;;;;;;;;10.50;8.50;19.90;99.90;;;;;;5010897;28;10584;-65
2022/05/25 14:11:49;;;;;;;;;7.50;7.50;19.90;99.90;;;;;;5010054;28;9876;-65
2022/05/25 14:14:29;;;;;;;;;7.50;7.50;19.90;99.90;;;;;;5016554;28;9902;-65
2022/05/25 14:17:07;;;;;;;;;11.00;9.00;19.90;99.90;;;;;;5017047;28;9736;-64
2022/05/25 14:19:51;;;;;;;;;8.50;8.50;19.90;99.90;;;;;;5013110;28;9765;-64
2022/05/25 14:22:25;;;;;;;;;9.00;9.00;20.00;99.90;;;;;;5016535;28;10458;-65
2022/05/25 14:25:10;;;;;;;;;6.50;5.50;20.00;99.90;;;;;;4991357;28;9754;-66